Terminal Aerodrome Forecast
Issued by NWS

Home | Current Version | Previous Version | Text Only | Print | Product List | Glossary On
Versions: 1 2 3 4 5 6 7 8 9 10 11 12
533
FTUS43 KICT 031138
TAFSLN
TAF
KSLN 031138Z 0312/0412 VRB03KT P6SM OVC070
     FM031800 05004KT P6SM VCSH OVC025
     FM040000 VRB03KT 4SM -RA OVC015
     FM040400 00000KT 2SM -RA OVC010
     FM040600 VRB03KT P6SM OVC010
     FM041100 26005KT P6SM SCT015=

USA.gov is the U.S. government's official web portal to all federal, state and local government web resources and services.